sensor_id;sensor_type;location;lat;lon;timestamp;temperature;humidity
26378;DHT22;14078;50.974;6.786;2024-02-23T00:01:06;7.10;1.00
26378;DHT22;14078;50.974;6.786;2024-02-23T00:03:33;7.10;99.90
26378;DHT22;14078;50.974;6.786;2024-02-23T00:06:00;7.10;99.90
26378;DHT22;14078;50.974;6.786;2024-02-23T00:08:26;7.00;99.90
26378;DHT22;14078;50.974;6.786;2024-02-23T00:10:54;7.00;1.00
26378;DHT22;14078;50.974;6.786;2024-02-23T00:13:21;7.00;1.00
26378;DHT22;14078;50.974;6.786;2024-02-23T00:15:47;6.90;99.90
26378;DHT22;14078;50.974;6.786;2024-02-23T00:18:14;6.80;99.90
26378;DHT22;14078;50.974;6.786;2024-02-23T00:20:42;6.70;1.00
26378;DHT22;14078;50.974;6.786;2024-02-23T00:23:09;6.60;99.90
26378;DHT22;14078;50.974;6.786;2024-02-23T00:25:35;6.50;99.90
26378;DHT22;14078;50.974;6.786;2024-02-23T00:28:03;6.40;99.90
26378;DHT22;14078;50.974;6.786;2024-02-23T00:30:30;6.40;1.00
26378;DHT22;14078;50.974;6.786;2024-02-23T00:32:56;6.30;1.00
26378;DHT22;14078;50.974;6.786;2024-02-23T00:35:23;6.30;1.00
26378;DHT22;14078;50.974;6.786;2024-02-23T00:37:49;6.20;1.00
26378;DHT22;14078;50.974;6.786;2024-02-23T00:40:16;6.20;1.00
26378;DHT22;14078;50.974;6.786;2024-02-23T00:42:42;6.10;1.00
26378;DHT22;14078;50.974;6.786;2024-02-23T00:45:10;6.10;1.00
26378;DHT22;14078;50.974;6.786;2024-02-23T00:47:37;6.10;1.00
26378;DHT22;14078;50.974;6.786;2024-02-23T00:50:04;6.10;1.00
26378;DHT22;14078;50.974;6.786;2024-02-23T00:52:30;6.10;1.00
26378;DHT22;14078;50.974;6.786;2024-02-23T00:54:57;6.10;1.00
26378;DHT22;14078;50.974;6.786;2024-02-23T00:57:24;6.00;1.00
26378;DHT22;14078;50.974;6.786;2024-02-23T00:59:55;6.10;99.90
26378;DHT22;14078;50.974;6.786;2024-02-23T01:02:22;6.10;99.90
26378;DHT22;14078;50.974;6.786;2024-02-23T01:04:49;6.10;1.00
26378;DHT22;14078;50.974;6.786;2024-02-23T01:07:16;6.10;99.90
26378;DHT22;14078;50.974;6.786;2024-02-23T01:09:42;6.10;1.00
26378;DHT22;14078;50.974;6.786;2024-02-23T01:12:09;6.10;1.00
26378;DHT22;14078;50.974;6.786;2024-02-23T01:14:35;6.10;99.90
26378;DHT22;14078;50.974;6.786;2024-02-23T01:17:02;6.10;99.90
26378;DHT22;14078;50.974;6.786;2024-02-23T01:19:30;6.10;99.40
26378;DHT22;14078;50.974;6.786;2024-02-23T01:21:56;6.10;99.90
26378;DHT22;14078;50.974;6.786;2024-02-23T01:24:24;6.10;99.90
26378;DHT22;14078;50.974;6.786;2024-02-23T01:26:53;6.10;1.00
26378;DHT22;14078;50.974;6.786;2024-02-23T01:29:19;6.00;99.90
26378;DHT22;14078;50.974;6.786;2024-02-23T01:31:46;6.00;98.80
26378;DHT22;14078;50.974;6.786;2024-02-23T01:34:12;5.90;99.90
26378;DHT22;14078;50.974;6.786;2024-02-23T01:36:40;5.90;99.90
26378;DHT22;14078;50.974;6.786;2024-02-23T01:39:07;5.90;99.90
26378;DHT22;14078;50.974;6.786;2024-02-23T01:41:34;5.80;1.00
26378;DHT22;14078;50.974;6.786;2024-02-23T01:44:00;5.80;99.90
26378;DHT22;14078;50.974;6.786;2024-02-23T01:46:27;5.70;1.00
26378;DHT22;14078;50.974;6.786;2024-02-23T01:48:53;5.70;1.00
26378;DHT22;14078;50.974;6.786;2024-02-23T01:51:20;5.70;1.00
26378;DHT22;14078;50.974;6.786;2024-02-23T01:53:48;5.60;1.00
26378;DHT22;14078;50.974;6.786;2024-02-23T01:56:14;5.60;1.00
26378;DHT22;14078;50.974;6.786;2024-02-23T01:58:43;5.60;1.00
26378;DHT22;14078;50.974;6.786;2024-02-23T02:01:10;5.60;1.00
26378;DHT22;14078;50.974;6.786;2024-02-23T02:03:37;5.50;1.00
26378;DHT22;14078;50.974;6.786;2024-02-23T02:06:04;5.50;1.00
26378;DHT22;14078;50.974;6.786;2024-02-23T02:08:31;5.50;99.90
26378;DHT22;14078;50.974;6.786;2024-02-23T02:10:58;5.50;99.90
26378;DHT22;14078;50.974;6.786;2024-02-23T02:13:25;5.60;99.90
26378;DHT22;14078;50.974;6.786;2024-02-23T02:15:51;5.60;99.90
26378;DHT22;14078;50.974;6.786;2024-02-23T02:18:18;5.60;99.90
26378;DHT22;14078;50.974;6.786;2024-02-23T02:20:52;5.50;99.90
26378;DHT22;14078;50.974;6.786;2024-02-23T02:23:20;5.50;99.90
26378;DHT22;14078;50.974;6.786;2024-02-23T02:25:51;5.50;99.90
26378;DHT22;14078;50.974;6.786;2024-02-23T02:28:19;5.50;99.90
26378;DHT22;14078;50.974;6.786;2024-02-23T02:30:46;5.50;99.90
26378;DHT22;14078;50.974;6.786;2024-02-23T02:33:12;5.50;99.90
26378;DHT22;14078;50.974;6.786;2024-02-23T02:35:39;5.50;99.90
26378;DHT22;14078;50.974;6.786;2024-02-23T02:38:05;5.50;96.50
26378;DHT22;14078;50.974;6.786;2024-02-23T02:40:32;5.50;7.40
26378;DHT22;14078;50.974;6.786;2024-02-23T02:42:58;5.50;1.00
26378;DHT22;14078;50.974;6.786;2024-02-23T02:45:26;5.50;25.50
26378;DHT22;14078;50.974;6.786;2024-02-23T02:47:52;5.50;1.00
26378;DHT22;14078;50.974;6.786;2024-02-23T02:50:19;5.50;99.90
26378;DHT22;14078;50.974;6.786;2024-02-23T02:52:46;5.50;99.90
26378;DHT22;14078;50.974;6.786;2024-02-23T02:55:13;5.50;1.00
26378;DHT22;14078;50.974;6.786;2024-02-23T02:57:39;5.50;99.90
26378;DHT22;14078;50.974;6.786;2024-02-23T03:00:09;5.50;99.90
26378;DHT22;14078;50.974;6.786;2024-02-23T03:02:37;5.50;99.90
26378;DHT22;14078;50.974;6.786;2024-02-23T03:05:04;5.50;99.90
26378;DHT22;14078;50.974;6.786;2024-02-23T03:07:31;5.50;99.90
26378;DHT22;14078;50.974;6.786;2024-02-23T03:09:57;5.50;1.00
26378;DHT22;14078;50.974;6.786;2024-02-23T03:12:24;5.50;99.90
26378;DHT22;14078;50.974;6.786;2024-02-23T03:14:50;5.50;1.00
26378;DHT22;14078;50.974;6.786;2024-02-23T03:17:17;5.50;75.30
26378;DHT22;14078;50.974;6.786;2024-02-23T03:19:45;5.50;99.90
26378;DHT22;14078;50.974;6.786;2024-02-23T03:22:11;5.50;3.10
26378;DHT22;14078;50.974;6.786;2024-02-23T03:24:38;5.50;1.00
26378;DHT22;14078;50.974;6.786;2024-02-23T03:27:04;5.50;1.00
26378;DHT22;14078;50.974;6.786;2024-02-23T03:29:31;5.50;99.90
26378;DHT22;14078;50.974;6.786;2024-02-23T03:31:57;5.50;1.00
26378;DHT22;14078;50.974;6.786;2024-02-23T03:34:24;5.40;10.50
26378;DHT22;14078;50.974;6.786;2024-02-23T03:36:52;5.40;1.00
26378;DHT22;14078;50.974;6.786;2024-02-23T03:39:18;5.40;1.00
26378;DHT22;14078;50.974;6.786;2024-02-23T03:41:45;5.40;69.90
26378;DHT22;14078;50.974;6.786;2024-02-23T03:44:11;5.40;1.90
26378;DHT22;14078;50.974;6.786;2024-02-23T03:46:38;5.40;92.00
26378;DHT22;14078;50.974;6.786;2024-02-23T03:49:04;5.40;99.90
26378;DHT22;14078;50.974;6.786;2024-02-23T03:51:31;5.40;99.90
26378;DHT22;14078;50.974;6.786;2024-02-23T03:54:01;5.40;99.90
26378;DHT22;14078;50.974;6.786;2024-02-23T03:56:28;5.40;99.90
26378;DHT22;14078;50.974;6.786;2024-02-23T03:58:55;5.40;99.90
26378;DHT22;14078;50.974;6.786;2024-02-23T04:01:21;5.40;99.90
26378;DHT22;14078;50.974;6.786;2024-02-23T04:03:48;5.50;1.00
26378;DHT22;14078;50.974;6.786;2024-02-23T04:06:14;5.60;99.90
26378;DHT22;14078;50.974;6.786;2024-02-23T04:08:41;5.70;1.00
26378;DHT22;14078;50.974;6.786;2024-02-23T04:11:09;5.70;1.00
26378;DHT22;14078;50.974;6.786;2024-02-23T04:13:38;5.70;1.00
26378;DHT22;14078;50.974;6.786;2024-02-23T04:16:05;5.80;1.00
26378;DHT22;14078;50.974;6.786;2024-02-23T04:18:31;5.80;1.00
26378;DHT22;14078;50.974;6.786;2024-02-23T04:20:58;5.80;1.00
26378;DHT22;14078;50.974;6.786;2024-02-23T04:23:24;5.90;99.90
26378;DHT22;14078;50.974;6.786;2024-02-23T04:25:51;5.90;1.00
26378;DHT22;14078;50.974;6.786;2024-02-23T04:28:19;5.90;1.00
26378;DHT22;14078;50.974;6.786;2024-02-23T04:30:46;5.90;99.90
26378;DHT22;14078;50.974;6.786;2024-02-23T04:33:13;5.80;99.90
26378;DHT22;14078;50.974;6.786;2024-02-23T04:35:39;5.80;99.90
26378;DHT22;14078;50.974;6.786;2024-02-23T04:38:06;5.80;99.90
26378;DHT22;14078;50.974;6.786;2024-02-23T04:40:32;5.80;99.90
26378;DHT22;14078;50.974;6.786;2024-02-23T04:42:59;5.80;99.90
26378;DHT22;14078;50.974;6.786;2024-02-23T04:45:26;5.80;99.90
26378;DHT22;14078;50.974;6.786;2024-02-23T04:47:53;5.80;67.30
26378;DHT22;14078;50.974;6.786;2024-02-23T04:50:19;5.80;1.00
26378;DHT22;14078;50.974;6.786;2024-02-23T04:52:46;5.80;7.70
26378;DHT22;14078;50.974;6.786;2024-02-23T04:55:13;5.70;26.50
26378;DHT22;14078;50.974;6.786;2024-02-23T04:57:39;5.70;99.90
26378;DHT22;14078;50.974;6.786;2024-02-23T05:00:06;5.60;99.90
26378;DHT22;14078;50.974;6.786;2024-02-23T05:02:35;5.60;99.90
26378;DHT22;14078;50.974;6.786;2024-02-23T05:05:01;5.50;99.90
26378;DHT22;14078;50.974;6.786;2024-02-23T05:07:29;5.60;99.90
26378;DHT22;14078;50.974;6.786;2024-02-23T05:09:56;5.60;99.90
26378;DHT22;14078;50.974;6.786;2024-02-23T05:12:22;5.50;3.00
26378;DHT22;14078;50.974;6.786;2024-02-23T05:14:49;5.50;1.00
26378;DHT22;14078;50.974;6.786;2024-02-23T05:17:15;5.50;1.00
26378;DHT22;14078;50.974;6.786;2024-02-23T05:19:44;5.50;1.00
26378;DHT22;14078;50.974;6.786;2024-02-23T05:22:11;5.60;1.00
26378;DHT22;14078;50.974;6.786;2024-02-23T05:24:38;5.50;99.90
26378;DHT22;14078;50.974;6.786;2024-02-23T05:27:04;5.50;1.00
26378;DHT22;14078;50.974;6.786;2024-02-23T05:29:31;5.50;1.70
26378;DHT22;14078;50.974;6.786;2024-02-23T05:31:58;5.50;1.00
26378;DHT22;14078;50.974;6.786;2024-02-23T05:34:24;5.50;1.00
26378;DHT22;14078;50.974;6.786;2024-02-23T05:36:52;5.40;99.90
26378;DHT22;14078;50.974;6.786;2024-02-23T05:39:18;5.40;99.90
26378;DHT22;14078;50.974;6.786;2024-02-23T05:41:45;5.40;1.00
26378;DHT22;14078;50.974;6.786;2024-02-23T05:44:12;5.40;1.00
26378;DHT22;14078;50.974;6.786;2024-02-23T05:46:39;5.40;1.00
26378;DHT22;14078;50.974;6.786;2024-02-23T05:49:05;5.40;28.30
26378;DHT22;14078;50.974;6.786;2024-02-23T05:51:32;5.40;1.00
26378;DHT22;14078;50.974;6.786;2024-02-23T05:54:01;5.40;99.90
26378;DHT22;14078;50.974;6.786;2024-02-23T05:56:28;5.30;99.90
26378;DHT22;14078;50.974;6.786;2024-02-23T05:58:54;5.40;99.90
26378;DHT22;14078;50.974;6.786;2024-02-23T06:01:21;5.30;1.00
26378;DHT22;14078;50.974;6.786;2024-02-23T06:03:47;5.30;55.10
26378;DHT22;14078;50.974;6.786;2024-02-23T06:06:14;5.20;99.90
26378;DHT22;14078;50.974;6.786;2024-02-23T06:08:41;5.20;1.00
26378;DHT22;14078;50.974;6.786;2024-02-23T06:11:10;5.20;99.90
26378;DHT22;14078;50.974;6.786;2024-02-23T06:13:37;5.20;99.90
26378;DHT22;14078;50.974;6.786;2024-02-23T06:16:03;5.10;99.90
26378;DHT22;14078;50.974;6.786;2024-02-23T06:18:30;5.10;99.90
26378;DHT22;14078;50.974;6.786;2024-02-23T06:20:56;5.00;99.90
26378;DHT22;14078;50.974;6.786;2024-02-23T06:23:23;4.90;1.00
26378;DHT22;14078;50.974;6.786;2024-02-23T06:25:49;4.80;1.00
26378;DHT22;14078;50.974;6.786;2024-02-23T06:28:18;4.70;1.00
26378;DHT22;14078;50.974;6.786;2024-02-23T06:30:44;4.60;1.00
26378;DHT22;14078;50.974;6.786;2024-02-23T06:33:11;4.50;4.00
26378;DHT22;14078;50.974;6.786;2024-02-23T06:35:38;4.50;22.80
26378;DHT22;14078;50.974;6.786;2024-02-23T06:38:04;4.40;27.10
26378;DHT22;14078;50.974;6.786;2024-02-23T06:40:32;4.30;41.50
26378;DHT22;14078;50.974;6.786;2024-02-23T06:42:58;4.30;58.00
26378;DHT22;14078;50.974;6.786;2024-02-23T06:45:26;4.20;81.60
26378;DHT22;14078;50.974;6.786;2024-02-23T06:47:53;4.20;92.50
26378;DHT22;14078;50.974;6.786;2024-02-23T06:50:19;4.20;99.90
26378;DHT22;14078;50.974;6.786;2024-02-23T06:52:47;4.20;99.90
26378;DHT22;14078;50.974;6.786;2024-02-23T06:55:15;4.30;99.90
26378;DHT22;14078;50.974;6.786;2024-02-23T06:57:41;4.30;99.90
26378;DHT22;14078;50.974;6.786;2024-02-23T07:00:08;4.50;99.90
26378;DHT22;14078;50.974;6.786;2024-02-23T07:02:37;4.60;99.90
26378;DHT22;14078;50.974;6.786;2024-02-23T07:05:04;4.70;99.60
26378;DHT22;14078;50.974;6.786;2024-02-23T07:07:30;4.80;79.40
26378;DHT22;14078;50.974;6.786;2024-02-23T07:09:58;4.80;35.00
26378;DHT22;14078;50.974;6.786;2024-02-23T07:12:24;4.90;1.00
26378;DHT22;14078;50.974;6.786;2024-02-23T07:14:52;5.00;1.00
26378;DHT22;14078;50.974;6.786;2024-02-23T07:17:19;5.00;1.00
26378;DHT22;14078;50.974;6.786;2024-02-23T07:19:46;5.00;1.00
26378;DHT22;14078;50.974;6.786;2024-02-23T07:22:13;5.00;1.00
26378;DHT22;14078;50.974;6.786;2024-02-23T07:24:41;5.00;1.00
26378;DHT22;14078;50.974;6.786;2024-02-23T07:27:08;5.00;1.00
26378;DHT22;14078;50.974;6.786;2024-02-23T07:29:35;5.00;1.00
26378;DHT22;14078;50.974;6.786;2024-02-23T07:32:01;5.00;1.00
26378;DHT22;14078;50.974;6.786;2024-02-23T07:34:28;5.10;1.00
26378;DHT22;14078;50.974;6.786;2024-02-23T07:36:56;5.10;1.00
26378;DHT22;14078;50.974;6.786;2024-02-23T07:39:23;5.10;1.00
26378;DHT22;14078;50.974;6.786;2024-02-23T07:41:49;5.20;21.30
26378;DHT22;14078;50.974;6.786;2024-02-23T07:44:16;5.30;99.90
26378;DHT22;14078;50.974;6.786;2024-02-23T07:46:43;5.40;99.90
26378;DHT22;14078;50.974;6.786;2024-02-23T07:49:09;5.40;1.00
26378;DHT22;14078;50.974;6.786;2024-02-23T07:51:36;5.40;1.00
26378;DHT22;14078;50.974;6.786;2024-02-23T07:54:03;5.60;1.00
26378;DHT22;14078;50.974;6.786;2024-02-23T07:56:30;5.60;1.00
26378;DHT22;14078;50.974;6.786;2024-02-23T07:58:57;5.80;1.00
26378;DHT22;14078;50.974;6.786;2024-02-23T08:01:24;5.80;99.90
26378;DHT22;14078;50.974;6.786;2024-02-23T08:03:51;5.90;1.00
26378;DHT22;14078;50.974;6.786;2024-02-23T08:06:17;6.00;1.00
26378;DHT22;14078;50.974;6.786;2024-02-23T08:08:44;6.20;1.00
26378;DHT22;14078;50.974;6.786;2024-02-23T08:11:12;6.30;48.20
26378;DHT22;14078;50.974;6.786;2024-02-23T08:13:39;6.40;99.90
26378;DHT22;14078;50.974;6.786;2024-02-23T08:16:06;6.60;1.00
26378;DHT22;14078;50.974;6.786;2024-02-23T08:18:32;6.60;1.00
26378;DHT22;14078;50.974;6.786;2024-02-23T08:20:59;6.80;1.00
26378;DHT22;14078;50.974;6.786;2024-02-23T08:23:27;6.80;1.00
26378;DHT22;14078;50.974;6.786;2024-02-23T08:25:55;6.90;1.00
26378;DHT22;14078;50.974;6.786;2024-02-23T08:28:23;6.90;99.90
26378;DHT22;14078;50.974;6.786;2024-02-23T08:30:49;6.90;1.00
26378;DHT22;14078;50.974;6.786;2024-02-23T08:33:16;6.90;1.00
26378;DHT22;14078;50.974;6.786;2024-02-23T08:35:43;7.00;1.00
26378;DHT22;14078;50.974;6.786;2024-02-23T08:38:10;7.00;1.00
26378;DHT22;14078;50.974;6.786;2024-02-23T08:40:36;7.00;98.90
26378;DHT22;14078;50.974;6.786;2024-02-23T08:43:04;7.00;99.90
26378;DHT22;14078;50.974;6.786;2024-02-23T08:45:32;7.10;99.90
26378;DHT22;14078;50.974;6.786;2024-02-23T08:47:59;7.20;1.00
26378;DHT22;14078;50.974;6.786;2024-02-23T08:50:25;7.30;99.90
26378;DHT22;14078;50.974;6.786;2024-02-23T08:52:52;7.30;1.00
26378;DHT22;14078;50.974;6.786;2024-02-23T08:55:18;7.40;99.90
26378;DHT22;14078;50.974;6.786;2024-02-23T08:57:45;7.50;1.00
26378;DHT22;14078;50.974;6.786;2024-02-23T09:00:12;7.70;1.00
26378;DHT22;14078;50.974;6.786;2024-02-23T09:02:40;7.70;75.10
26378;DHT22;14078;50.974;6.786;2024-02-23T09:05:08;7.70;1.00
26378;DHT22;14078;50.974;6.786;2024-02-23T09:07:34;7.70;1.00
26378;DHT22;14078;50.974;6.786;2024-02-23T09:10:01;7.70;1.00
26378;DHT22;14078;50.974;6.786;2024-02-23T09:12:29;7.60;19.70
26378;DHT22;14078;50.974;6.786;2024-02-23T09:14:55;7.50;99.90
26378;DHT22;14078;50.974;6.786;2024-02-23T09:17:22;7.40;38.90
26378;DHT22;14078;50.974;6.786;2024-02-23T09:19:50;7.30;99.90
26378;DHT22;14078;50.974;6.786;2024-02-23T09:22:16;7.40;99.90
26378;DHT22;14078;50.974;6.786;2024-02-23T09:24:43;7.40;99.90
26378;DHT22;14078;50.974;6.786;2024-02-23T09:27:09;7.30;30.10
26378;DHT22;14078;50.974;6.786;2024-02-23T09:29:37;7.40;99.90
26378;DHT22;14078;50.974;6.786;2024-02-23T09:32:03;7.40;99.90
26378;DHT22;14078;50.974;6.786;2024-02-23T09:34:30;7.50;1.00
26378;DHT22;14078;50.974;6.786;2024-02-23T09:36:58;7.70;1.00
26378;DHT22;14078;50.974;6.786;2024-02-23T09:39:24;8.00;99.90
26378;DHT22;14078;50.974;6.786;2024-02-23T09:41:55;8.10;26.60
26378;DHT22;14078;50.974;6.786;2024-02-23T09:44:22;8.10;1.00
26378;DHT22;14078;50.974;6.786;2024-02-23T09:46:48;8.30;1.00
26378;DHT22;14078;50.974;6.786;2024-02-23T09:49:15;8.40;99.90
26378;DHT22;14078;50.974;6.786;2024-02-23T09:51:42;8.30;99.90
26378;DHT22;14078;50.974;6.786;2024-02-23T09:54:10;8.40;99.90
26378;DHT22;14078;50.974;6.786;2024-02-23T09:56:37;8.40;99.90
26378;DHT22;14078;50.974;6.786;2024-02-23T09:59:04;8.40;99.90
26378;DHT22;14078;50.974;6.786;2024-02-23T10:01:31;8.40;99.90
26378;DHT22;14078;50.974;6.786;2024-02-23T10:03:59;8.50;99.90
26378;DHT22;14078;50.974;6.786;2024-02-23T10:06:26;8.50;99.90
26378;DHT22;14078;50.974;6.786;2024-02-23T10:08:53;8.50;99.90
26378;DHT22;14078;50.974;6.786;2024-02-23T10:11:22;8.50;99.90
26378;DHT22;14078;50.974;6.786;2024-02-23T10:13:48;8.60;99.90
26378;DHT22;14078;50.974;6.786;2024-02-23T10:16:15;8.70;99.90
26378;DHT22;14078;50.974;6.786;2024-02-23T10:18:42;8.80;99.90
26378;DHT22;14078;50.974;6.786;2024-02-23T10:21:08;8.80;99.90
26378;DHT22;14078;50.974;6.786;2024-02-23T10:23:35;8.90;99.90
26378;DHT22;14078;50.974;6.786;2024-02-23T10:26:04;8.90;99.90
26378;DHT22;14078;50.974;6.786;2024-02-23T10:28:32;9.10;99.90
26378;DHT22;14078;50.974;6.786;2024-02-23T10:30:59;9.30;99.90
26378;DHT22;14078;50.974;6.786;2024-02-23T10:33:27;9.30;81.40
26378;DHT22;14078;50.974;6.786;2024-02-23T10:35:55;9.30;45.60
26378;DHT22;14078;50.974;6.786;2024-02-23T10:38:22;9.30;54.80
26378;DHT22;14078;50.974;6.786;2024-02-23T10:40:50;9.30;36.60
26378;DHT22;14078;50.974;6.786;2024-02-23T10:43:19;9.20;1.00
26378;DHT22;14078;50.974;6.786;2024-02-23T10:45:47;9.00;1.00
26378;DHT22;14078;50.974;6.786;2024-02-23T10:48:14;8.80;1.00
26378;DHT22;14078;50.974;6.786;2024-02-23T10:50:41;8.80;18.30
26378;DHT22;14078;50.974;6.786;2024-02-23T10:53:09;8.90;88.70
26378;DHT22;14078;50.974;6.786;2024-02-23T10:55:36;9.00;99.90
26378;DHT22;14078;50.974;6.786;2024-02-23T10:58:04;8.90;99.90
26378;DHT22;14078;50.974;6.786;2024-02-23T11:00:33;8.90;99.90
26378;DHT22;14078;50.974;6.786;2024-02-23T11:03:01;9.00;99.90
26378;DHT22;14078;50.974;6.786;2024-02-23T11:05:28;8.90;99.90
26378;DHT22;14078;50.974;6.786;2024-02-23T11:07:55;8.80;99.90
26378;DHT22;14078;50.974;6.786;2024-02-23T11:10:22;8.70;99.90
26378;DHT22;14078;50.974;6.786;2024-02-23T11:12:56;8.60;99.90
26378;DHT22;14078;50.974;6.786;2024-02-23T11:15:26;8.60;99.90
26378;DHT22;14078;50.974;6.786;2024-02-23T11:17:54;8.60;99.90
26378;DHT22;14078;50.974;6.786;2024-02-23T11:20:22;8.60;99.90
26378;DHT22;14078;50.974;6.786;2024-02-23T11:22:51;8.70;99.90
26378;DHT22;14078;50.974;6.786;2024-02-23T11:25:18;8.70;99.90
26378;DHT22;14078;50.974;6.786;2024-02-23T11:27:48;8.70;99.90
26378;DHT22;14078;50.974;6.786;2024-02-23T11:30:16;8.70;99.90
26378;DHT22;14078;50.974;6.786;2024-02-23T11:32:43;8.70;99.90
26378;DHT22;14078;50.974;6.786;2024-02-23T11:35:12;8.80;99.90
26378;DHT22;14078;50.974;6.786;2024-02-23T11:37:46;8.90;99.90
26378;DHT22;14078;50.974;6.786;2024-02-23T11:40:13;9.00;99.90
26378;DHT22;14078;50.974;6.786;2024-02-23T11:42:40;9.00;99.90
26378;DHT22;14078;50.974;6.786;2024-02-23T11:45:07;9.00;99.90
26378;DHT22;14078;50.974;6.786;2024-02-23T11:47:34;9.10;99.90
26378;DHT22;14078;50.974;6.786;2024-02-23T11:50:01;9.10;99.90
26378;DHT22;14078;50.974;6.786;2024-02-23T11:52:27;9.20;99.90
26378;DHT22;14078;50.974;6.786;2024-02-23T11:54:55;9.20;99.90
26378;DHT22;14078;50.974;6.786;2024-02-23T11:57:23;9.20;99.90
26378;DHT22;14078;50.974;6.786;2024-02-23T11:59:50;9.30;99.90
26378;DHT22;14078;50.974;6.786;2024-02-23T12:02:17;9.40;99.90
26378;DHT22;14078;50.974;6.786;2024-02-23T12:04:43;9.30;99.90
26378;DHT22;14078;50.974;6.786;2024-02-23T12:07:10;9.20;94.50
26378;DHT22;14078;50.974;6.786;2024-02-23T12:09:37;9.10;99.90
26378;DHT22;14078;50.974;6.786;2024-02-23T12:12:07;9.10;95.60
26378;DHT22;14078;50.974;6.786;2024-02-23T12:14:35;9.10;90.20
26378;DHT22;14078;50.974;6.786;2024-02-23T12:17:01;9.10;82.30
26378;DHT22;14078;50.974;6.786;2024-02-23T12:19:29;9.20;51.00
26378;DHT22;14078;50.974;6.786;2024-02-23T12:21:59;9.10;45.60
26378;DHT22;14078;50.974;6.786;2024-02-23T12:24:25;9.00;57.90
26378;DHT22;14078;50.974;6.786;2024-02-23T12:26:53;9.00;51.20
26378;DHT22;14078;50.974;6.786;2024-02-23T12:29:21;9.00;25.50
26378;DHT22;14078;50.974;6.786;2024-02-23T12:31:48;9.00;25.30
26378;DHT22;14078;50.974;6.786;2024-02-23T12:34:14;9.00;20.40
26378;DHT22;14078;50.974;6.786;2024-02-23T12:36:42;9.10;21.80
26378;DHT22;14078;50.974;6.786;2024-02-23T12:39:09;9.30;32.80
26378;DHT22;14078;50.974;6.786;2024-02-23T12:41:35;9.50;26.20
26378;DHT22;14078;50.974;6.786;2024-02-23T12:44:02;9.70;24.00
26378;DHT22;14078;50.974;6.786;2024-02-23T12:46:30;9.90;24.20
26378;DHT22;14078;50.974;6.786;2024-02-23T12:48:56;9.90;1.00
26378;DHT22;14078;50.974;6.786;2024-02-23T12:51:24;9.90;1.00
26378;DHT22;14078;50.974;6.786;2024-02-23T12:53:51;9.80;1.00
26378;DHT22;14078;50.974;6.786;2024-02-23T12:56:18;9.80;1.00
26378;DHT22;14078;50.974;6.786;2024-02-23T12:58:45;9.90;1.00
26378;DHT22;14078;50.974;6.786;2024-02-23T13:01:12;10.00;1.00
26378;DHT22;14078;50.974;6.786;2024-02-23T13:03:40;10.10;1.00
26378;DHT22;14078;50.974;6.786;2024-02-23T13:06:07;10.00;1.00
26378;DHT22;14078;50.974;6.786;2024-02-23T13:08:33;10.00;1.00
26378;DHT22;14078;50.974;6.786;2024-02-23T13:11:00;10.00;1.00
26378;DHT22;14078;50.974;6.786;2024-02-23T13:13:27;10.10;1.00
26378;DHT22;14078;50.974;6.786;2024-02-23T13:15:54;10.10;1.00
26378;DHT22;14078;50.974;6.786;2024-02-23T13:18:22;10.30;1.00
26378;DHT22;14078;50.974;6.786;2024-02-23T13:20:50;10.40;1.00
26378;DHT22;14078;50.974;6.786;2024-02-23T13:23:16;10.30;1.00
26378;DHT22;14078;50.974;6.786;2024-02-23T13:25:43;10.30;1.00
26378;DHT22;14078;50.974;6.786;2024-02-23T13:28:10;10.30;1.00
26378;DHT22;14078;50.974;6.786;2024-02-23T13:30:37;10.30;1.00
26378;DHT22;14078;50.974;6.786;2024-02-23T13:33:04;10.30;1.00
26378;DHT22;14078;50.974;6.786;2024-02-23T13:35:31;10.40;1.00
26378;DHT22;14078;50.974;6.786;2024-02-23T13:37:59;10.60;1.00
26378;DHT22;14078;50.974;6.786;2024-02-23T13:40:28;10.80;1.00
26378;DHT22;14078;50.974;6.786;2024-02-23T13:42:55;10.80;1.00
26378;DHT22;14078;50.974;6.786;2024-02-23T13:45:22;10.70;1.00
26378;DHT22;14078;50.974;6.786;2024-02-23T13:47:55;10.60;1.00
26378;DHT22;14078;50.974;6.786;2024-02-23T13:50:22;10.60;1.00
26378;DHT22;14078;50.974;6.786;2024-02-23T13:52:48;10.50;1.00
26378;DHT22;14078;50.974;6.786;2024-02-23T13:55:16;10.50;1.00
26378;DHT22;14078;50.974;6.786;2024-02-23T13:57:43;10.60;1.00
26378;DHT22;14078;50.974;6.786;2024-02-23T14:00:09;10.80;1.00
26378;DHT22;14078;50.974;6.786;2024-02-23T14:02:38;10.80;1.00
26378;DHT22;14078;50.974;6.786;2024-02-23T14:05:06;10.80;1.00
26378;DHT22;14078;50.974;6.786;2024-02-23T14:07:33;10.80;1.00
26378;DHT22;14078;50.974;6.786;2024-02-23T14:09:59;10.80;1.00
26378;DHT22;14078;50.974;6.786;2024-02-23T14:12:27;10.80;1.00
26378;DHT22;14078;50.974;6.786;2024-02-23T14:14:54;10.80;1.00
26378;DHT22;14078;50.974;6.786;2024-02-23T14:17:21;10.80;1.00
26378;DHT22;14078;50.974;6.786;2024-02-23T14:19:47;10.70;1.00
26378;DHT22;14078;50.974;6.786;2024-02-23T14:22:15;10.60;1.00
26378;DHT22;14078;50.974;6.786;2024-02-23T14:24:42;10.60;1.00
26378;DHT22;14078;50.974;6.786;2024-02-23T14:27:09;10.40;1.00
26378;DHT22;14078;50.974;6.786;2024-02-23T14:29:37;10.30;1.00
26378;DHT22;14078;50.974;6.786;2024-02-23T14:32:03;10.20;1.00
26378;DHT22;14078;50.974;6.786;2024-02-23T14:34:30;10.10;1.00
26378;DHT22;14078;50.974;6.786;2024-02-23T14:36:58;9.90;1.00
26378;DHT22;14078;50.974;6.786;2024-02-23T14:39:25;9.90;1.00
26378;DHT22;14078;50.974;6.786;2024-02-23T14:41:51;9.80;1.00
26378;DHT22;14078;50.974;6.786;2024-02-23T14:44:18;9.80;1.00
26378;DHT22;14078;50.974;6.786;2024-02-23T14:46:46;9.90;1.00
26378;DHT22;14078;50.974;6.786;2024-02-23T14:49:12;9.90;1.00
26378;DHT22;14078;50.974;6.786;2024-02-23T14:51:39;9.80;1.00
26378;DHT22;14078;50.974;6.786;2024-02-23T14:54:08;9.80;1.00
26378;DHT22;14078;50.974;6.786;2024-02-23T14:56:34;9.80;1.00
26378;DHT22;14078;50.974;6.786;2024-02-23T14:59:01;9.70;1.00
26378;DHT22;14078;50.974;6.786;2024-02-23T15:01:27;9.60;1.00
26378;DHT22;14078;50.974;6.786;2024-02-23T15:03:55;9.50;1.00
26378;DHT22;14078;50.974;6.786;2024-02-23T15:06:22;9.50;1.00
26378;DHT22;14078;50.974;6.786;2024-02-23T15:08:49;9.60;1.00
26378;DHT22;14078;50.974;6.786;2024-02-23T15:11:15;9.40;2.40
26378;DHT22;14078;50.974;6.786;2024-02-23T15:13:42;9.40;1.00
26378;DHT22;14078;50.974;6.786;2024-02-23T15:16:08;9.40;55.00
26378;DHT22;14078;50.974;6.786;2024-02-23T15:18:35;9.50;51.70
26378;DHT22;14078;50.974;6.786;2024-02-23T15:21:03;9.60;99.90
26378;DHT22;14078;50.974;6.786;2024-02-23T15:23:30;9.70;46.90
26378;DHT22;14078;50.974;6.786;2024-02-23T15:25:56;9.70;46.00
26378;DHT22;14078;50.974;6.786;2024-02-23T15:28:23;9.60;56.70
26378;DHT22;14078;50.974;6.786;2024-02-23T15:30:49;9.50;40.60
26378;DHT22;14078;50.974;6.786;2024-02-23T15:33:16;9.40;97.70
26378;DHT22;14078;50.974;6.786;2024-02-23T15:35:43;9.40;99.90
26378;DHT22;14078;50.974;6.786;2024-02-23T15:38:11;9.40;99.90
26378;DHT22;14078;50.974;6.786;2024-02-23T15:40:37;9.30;99.90
26378;DHT22;14078;50.974;6.786;2024-02-23T15:43:04;9.30;99.90
26378;DHT22;14078;50.974;6.786;2024-02-23T15:45:31;9.40;99.90
26378;DHT22;14078;50.974;6.786;2024-02-23T15:47:57;9.40;99.90
26378;DHT22;14078;50.974;6.786;2024-02-23T15:50:24;9.40;92.80